createdAt,value
2022-11-29T00:01:46.672Z,101253.83
2022-11-29T00:04:14.446Z,101253.31
2022-11-29T00:06:42.401Z,101252.48
2022-11-29T00:09:12.950Z,101254.39
2022-11-29T00:12:00.083Z,101253.84
2022-11-29T00:14:29.105Z,101254.32
2022-11-29T00:17:01.879Z,101254.41
2022-11-29T00:19:31.889Z,101252.94
2022-11-29T00:22:00.986Z,101255.96
2022-11-29T00:24:31.514Z,101258.69
2022-11-29T00:26:59.587Z,101260.88
2022-11-29T00:29:28.262Z,101256.80
2022-11-29T00:31:55.962Z,101259.55
2022-11-29T00:34:23.689Z,101251.25
2022-11-29T00:36:51.531Z,101251.87
2022-11-29T00:39:19.416Z,101248.91
2022-11-29T00:41:47.119Z,101245.29
2022-11-29T00:44:19.896Z,101247.67
2022-11-29T00:46:48.474Z,101239.88
2022-11-29T00:49:16.450Z,101244.35
2022-11-29T00:51:44.122Z,101237.84
2022-11-29T00:54:12.168Z,101239.08
2022-11-29T00:56:39.839Z,101234.05
2022-11-29T00:59:07.586Z,101235.52
2022-11-29T01:01:35.511Z,101235.48
2022-11-29T01:04:03.492Z,101235.23
2022-11-29T01:06:31.150Z,101234.80
2022-11-29T01:08:58.829Z,101230.33
2022-11-29T01:11:28.016Z,101231.59
2022-11-29T01:13:58.977Z,101229.79
2022-11-29T01:16:28.847Z,101227.51
2022-11-29T01:18:56.775Z,101226.17
2022-11-29T01:21:24.953Z,101222.95
2022-11-29T01:27:22.491Z,101210.47
2022-11-29T01:29:50.198Z,101216.80
2022-11-29T01:32:18.119Z,101205.98
2022-11-29T01:34:46.310Z,101206.25
2022-11-29T01:37:14.156Z,101204.71
2022-11-29T01:39:42.597Z,101206.66
2022-11-29T01:42:12.142Z,101204.18
2022-11-29T01:44:39.942Z,101201.66
2022-11-29T01:47:10.620Z,101199.64
2022-11-29T01:49:42.831Z,101201.09
2022-11-29T01:52:23.942Z,101199.48
2022-11-29T01:54:56.501Z,101197.16
2022-11-29T01:57:25.223Z,101197.94
2022-11-29T01:59:58.347Z,101193.42
2022-11-29T02:02:50.919Z,101193.86
2022-11-29T02:05:20.594Z,101198.08
2022-11-29T02:07:52.957Z,101196.10
2022-11-29T02:10:31.769Z,101194.55
2022-11-29T02:13:10.518Z,101189.02
2022-11-29T02:16:08.016Z,101193.61
2022-11-29T02:19:15.534Z,101193.42
2022-11-29T02:21:49.835Z,101199.95
2022-11-29T02:24:42.817Z,101199.77
2022-11-29T02:27:48.536Z,101205.36
2022-11-29T02:30:22.566Z,101208.86
2022-11-29T02:33:05.216Z,101207.65
2022-11-29T02:35:42.479Z,101204.05
2022-11-29T02:38:49.694Z,101203.86
2022-11-29T02:41:44.034Z,101211.42
2022-11-29T02:44:32.339Z,101210.48
2022-11-29T02:47:15.322Z,101212.73
2022-11-29T02:50:20.083Z,101214.27
2022-11-29T02:53:16.149Z,101216.66
2022-11-29T02:55:51.623Z,101215.19
2022-11-29T02:58:27.787Z,101217.67
2022-11-29T03:01:26.763Z,101217.45
2022-11-29T03:04:14.244Z,101220.71
2022-11-29T03:07:03.718Z,101221.64
2022-11-29T03:09:54.704Z,101219.19
2022-11-29T03:12:45.504Z,101222.73
2022-11-29T03:15:30.687Z,101221.60
2022-11-29T03:18:42.959Z,101222.79
2022-11-29T03:21:22.643Z,101217.08
2022-11-29T03:23:53.847Z,101212.22
2022-11-29T03:26:30.005Z,101219.02
2022-11-29T03:29:33.695Z,101222.52
2022-11-29T03:32:28.038Z,101224.54
2022-11-29T03:35:05.388Z,101221.64
2022-11-29T03:37:55.318Z,101220.39
2022-11-29T03:40:33.342Z,101222.24
2022-11-29T03:43:06.826Z,101223.25
2022-11-29T03:45:59.833Z,101225.67
2022-11-29T03:48:35.728Z,101227.60
2022-11-29T03:51:12.673Z,101228.89
2022-11-29T03:53:52.025Z,101231.03
2022-11-29T03:56:22.992Z,101226.48
2022-11-29T03:59:13.398Z,101229.39
2022-11-29T04:02:14.989Z,101240.16
2022-11-29T04:05:07.808Z,101237.81
2022-11-29T04:08:09.669Z,101244.13
2022-11-29T04:10:37.318Z,101238.66
2022-11-29T04:13:26.634Z,101243.64
2022-11-29T04:15:57.899Z,101241.09
2022-11-29T04:18:38.155Z,101243.56
2022-11-29T04:21:06.460Z,101249.80
2022-11-29T04:23:46.846Z,101253.99
2022-11-29T04:26:17.490Z,101254.89
2022-11-29T04:28:45.155Z,101250.49
2022-11-29T04:31:42.639Z,101251.81
2022-11-29T04:34:47.072Z,101252.52
2022-11-29T04:37:29.909Z,101253.02
2022-11-29T04:40:19.263Z,101254.76
2022-11-29T04:42:55.795Z,101254.83
2022-11-29T04:45:29.408Z,101255.38
2022-11-29T04:48:27.719Z,101252.27
2022-11-29T04:51:04.435Z,101256.28
2022-11-29T04:53:35.127Z,101258.96
2022-11-29T04:56:21.581Z,101261.08
2022-11-29T04:58:58.259Z,101262.30
2022-11-29T05:01:37.434Z,101260.09
2022-11-29T05:04:30.119Z,101264.89
2022-11-29T05:07:14.378Z,101264.41
2022-11-29T05:10:17.975Z,101269.29
2022-11-29T05:12:58.178Z,101270.76
2022-11-29T05:15:45.688Z,101273.68
2022-11-29T05:18:51.268Z,101278.04
2022-11-29T05:21:24.894Z,101280.34
2022-11-29T05:24:04.147Z,101283.27
2022-11-29T05:26:59.795Z,101280.45
2022-11-29T05:29:33.901Z,101287.36
2022-11-29T05:32:07.859Z,101286.95
2022-11-29T05:34:47.585Z,101288.91
2022-11-29T05:37:49.400Z,101290.55
2022-11-29T05:40:39.118Z,101295.17
2022-11-29T05:43:14.980Z,101299.31
2022-11-29T05:46:18.798Z,101304.20
2022-11-29T05:48:59.014Z,101305.66
2022-11-29T05:51:29.701Z,101307.75
2022-11-29T05:54:12.746Z,101307.68
2022-11-29T05:56:55.571Z,101312.19
2022-11-29T05:59:27.711Z,101315.57
2022-11-29T06:02:00.498Z,101321.30
2022-11-29T06:04:57.197Z,101322.07
2022-11-29T06:07:35.423Z,101327.02
2022-11-29T06:21:24.370Z,101331.77
2022-11-29T06:23:58.169Z,101334.46
2022-11-29T06:26:55.434Z,101340.45
2022-11-29T06:29:36.913Z,101335.52
2022-11-29T06:32:23.864Z,101339.49
2022-11-29T06:35:01.029Z,101345.46
2022-11-29T06:37:30.845Z,101343.13
2022-11-29T06:39:57.267Z,101348.05
2022-11-29T06:42:23.596Z,101347.55
2022-11-29T06:44:50.484Z,101349.58
2022-11-29T06:47:19.588Z,101350.45
2022-11-29T06:49:55.554Z,101354.69
2022-11-29T06:52:26.695Z,101355.83
2022-11-29T06:54:56.015Z,101350.98
2022-11-29T06:58:06.770Z,101357.30
2022-11-29T07:00:49.147Z,101358.72
2022-11-29T07:03:30.379Z,101361.55
2022-11-29T07:05:57.720Z,101363.24
2022-11-29T07:08:24.701Z,101365.68
2022-11-29T07:10:54.851Z,101363.20
2022-11-29T07:13:22.229Z,101365.65
2022-11-29T07:16:12.066Z,101370.05
2022-11-29T07:18:41.487Z,101369.58
2022-11-29T07:21:38.789Z,101372.31
2022-11-29T07:27:40.309Z,101373.02
2022-11-29T07:30:40.392Z,101377.98
2022-11-29T07:33:20.267Z,101376.27
2022-11-29T07:36:18.798Z,101380.77
2022-11-29T07:39:21.869Z,101381.73
2022-11-29T07:42:28.541Z,101379.27
2022-11-29T07:45:06.974Z,101387.96
2022-11-29T07:47:36.056Z,101383.35
2022-11-29T07:50:04.830Z,101382.60
2022-11-29T07:52:33.465Z,101385.45
2022-11-29T07:55:01.850Z,101391.15
2022-11-29T07:57:29.524Z,101390.00
2022-11-29T07:59:57.222Z,101390.08
2022-11-29T08:02:32.068Z,101382.31
2022-11-29T08:05:01.711Z,101382.81
2022-11-29T08:07:30.263Z,101388.04
2022-11-29T08:09:58.004Z,101383.70
2022-11-29T08:12:25.976Z,101383.52
2022-11-29T08:14:53.627Z,101387.95
2022-11-29T08:17:21.316Z,101385.51
2022-11-29T08:19:49.049Z,101387.58
2022-11-29T08:22:17.029Z,101389.29
2022-11-29T08:24:47.590Z,101389.86
2022-11-29T08:27:15.690Z,101393.29
2022-11-29T08:29:43.389Z,101392.55
2022-11-29T08:32:11.197Z,101391.17
2022-11-29T08:34:38.865Z,101393.45
2022-11-29T08:37:06.544Z,101395.84
2022-11-29T08:39:34.282Z,101397.08
2022-11-29T08:42:01.933Z,101398.60
2022-11-29T08:44:30.111Z,101396.61
2022-11-29T08:47:16.089Z,101398.55
2022-11-29T08:50:01.969Z,101392.94
2022-11-29T08:52:49.970Z,101394.29
2022-11-29T08:55:23.579Z,101391.02
2022-11-29T08:57:52.003Z,101388.90
2022-11-29T09:00:21.302Z,101391.36
2022-11-29T09:02:49.147Z,101389.29
2022-11-29T09:05:17.250Z,101386.15
2022-11-29T09:07:46.750Z,101389.65
2022-11-29T09:10:14.457Z,101388.95
2022-11-29T09:12:44.190Z,101383.57
2022-11-29T09:15:12.213Z,101388.36
2022-11-29T09:17:40.009Z,101389.86
2022-11-29T09:20:08.369Z,101391.93
2022-11-29T09:22:36.098Z,101392.56
2022-11-29T09:25:04.262Z,101391.20
2022-11-29T09:27:31.989Z,101390.94
2022-11-29T09:29:59.659Z,101384.72
2022-11-29T09:32:27.427Z,101383.45
2022-11-29T09:34:55.174Z,101380.29
2022-11-29T09:37:22.920Z,101380.58
2022-11-29T09:39:50.594Z,101381.86
2022-11-29T09:42:40.268Z,101383.24
2022-11-29T09:45:14.555Z,101379.01
2022-11-29T09:47:56.462Z,101377.96
2022-11-29T09:50:43.193Z,101372.96
2022-11-29T09:53:29.990Z,101373.93
2022-11-29T09:56:09.980Z,101376.65
2022-11-29T09:58:48.207Z,101372.02
2022-11-29T10:01:27.056Z,101374.09
2022-11-29T10:04:00.334Z,101367.13
2022-11-29T10:06:40.819Z,101366.31
2022-11-29T10:09:22.341Z,101369.09
2022-11-29T10:12:05.371Z,101364.60
2022-11-29T10:14:46.173Z,101366.08
2022-11-29T10:17:35.123Z,101366.39
2022-11-29T10:20:29.211Z,101363.77
2022-11-29T10:23:03.600Z,101372.52
2022-11-29T10:25:47.971Z,101367.23
2022-11-29T10:28:19.964Z,101369.92
2022-11-29T10:30:48.631Z,101369.88
2022-11-29T10:33:25.451Z,101375.05
2022-11-29T10:35:57.181Z,101374.38
2022-11-29T10:38:32.494Z,101373.65
2022-11-29T10:41:15.970Z,101368.72
2022-11-29T10:43:43.852Z,101375.41
2022-11-29T10:46:30.546Z,101375.23
2022-11-29T10:49:01.370Z,101376.11
2022-11-29T10:51:30.148Z,101376.88
2022-11-29T10:54:24.196Z,101379.16
2022-11-29T10:56:52.005Z,101381.70
2022-11-29T10:59:30.879Z,101376.26
2022-11-29T11:01:58.857Z,101379.98
2022-11-29T11:04:26.504Z,101381.30
2022-11-29T11:06:57.935Z,101381.50
2022-11-29T11:09:36.830Z,101385.02
2022-11-29T11:12:16.957Z,101383.96
2022-11-29T11:14:45.317Z,101382.03
2022-11-29T11:17:26.656Z,101389.34
2022-11-29T11:20:04.518Z,101388.48
2022-11-29T11:22:33.712Z,101383.02
2022-11-29T11:25:27.329Z,101381.63
2022-11-29T11:27:55.824Z,101381.72
2022-11-29T11:30:27.064Z,101385.39
2022-11-29T11:33:27.488Z,101379.92
2022-11-29T11:36:09.947Z,101377.60
2022-11-29T11:38:53.276Z,101379.96
2022-11-29T11:41:48.376Z,101376.80
2022-11-29T11:44:49.894Z,101384.84
2022-11-29T11:47:22.115Z,101394.02
2022-11-29T11:49:53.926Z,101401.60
2022-11-29T11:52:23.207Z,101398.73
2022-11-29T11:54:57.945Z,101400.42
2022-11-29T11:57:27.287Z,101400.86
2022-11-29T12:00:00.813Z,101398.38
2022-11-29T12:02:41.012Z,101407.73
2022-11-29T12:05:17.094Z,101404.36
2022-11-29T12:08:09.783Z,101402.31
2022-11-29T12:10:40.455Z,101399.49
2022-11-29T12:13:24.546Z,101400.73
2022-11-29T12:15:53.372Z,101404.52
2022-11-29T12:18:48.307Z,101404.85
2022-11-29T12:21:21.511Z,101405.59
2022-11-29T12:24:04.376Z,101404.90
2022-11-29T12:26:58.236Z,101410.49
2022-11-29T12:29:28.727Z,101412.95
2022-11-29T12:32:20.990Z,101412.06
2022-11-29T12:35:13.653Z,101413.63
2022-11-29T12:38:24.127Z,101412.82
2022-11-29T12:41:26.207Z,101416.79
2022-11-29T12:44:07.417Z,101421.77
2022-11-29T12:46:35.721Z,101420.56
2022-11-29T12:49:35.255Z,101426.60
2022-11-29T12:52:09.302Z,101427.70
2022-11-29T12:54:46.252Z,101431.91
2022-11-29T12:57:32.718Z,101432.73
2022-11-29T13:00:10.816Z,101430.67
2022-11-29T13:03:06.850Z,101433.05
2022-11-29T13:05:42.472Z,101433.88
2022-11-29T13:08:22.152Z,101438.31
2022-11-29T13:10:56.136Z,101432.91
2022-11-29T13:13:53.247Z,101439.07
2022-11-29T13:16:51.596Z,101439.71
2022-11-29T13:19:37.643Z,101439.45
2022-11-29T13:22:27.870Z,101442.75
2022-11-29T13:28:38.140Z,101449.30
2022-11-29T13:31:10.128Z,101450.93
2022-11-29T13:34:06.007Z,101455.16
2022-11-29T13:36:50.992Z,101456.46
2022-11-29T13:39:41.777Z,101461.53
2022-11-29T13:42:15.570Z,101463.05
2022-11-29T13:44:52.965Z,101466.34
2022-11-29T13:47:21.166Z,101467.26
2022-11-29T13:49:50.662Z,101464.98
2022-11-29T13:52:41.713Z,101466.77
2022-11-29T13:55:12.130Z,101460.70
2022-11-29T13:58:17.899Z,101460.92
2022-11-29T14:00:45.962Z,101456.44
2022-11-29T14:03:28.903Z,101450.89
2022-11-29T14:06:03.059Z,101457.30
2022-11-29T14:11:52.623Z,101458.36
2022-11-29T14:14:32.937Z,101460.55
2022-11-29T14:17:34.541Z,101460.14
2022-11-29T14:20:43.963Z,101457.23
2022-11-29T14:23:18.374Z,101454.23
2022-11-29T14:25:55.036Z,101451.73
2022-11-29T14:28:22.710Z,101458.20
2022-11-29T14:30:55.456Z,101455.16
2022-11-29T14:33:48.872Z,101457.29
2022-11-29T14:36:28.715Z,101454.66
2022-11-29T14:39:24.308Z,101458.23
2022-11-29T14:42:14.712Z,101459.04
2022-11-29T14:44:51.170Z,101458.21
2022-11-29T14:47:23.736Z,101460.75
2022-11-29T14:49:54.043Z,101464.09
2022-11-29T14:52:29.492Z,101461.06
2022-11-29T14:55:05.430Z,101461.77
2022-11-29T14:57:48.209Z,101459.12
2022-11-29T15:00:36.983Z,101461.27
2022-11-29T15:03:13.087Z,101462.11
2022-11-29T15:05:50.825Z,101466.65
2022-11-29T15:08:32.214Z,101467.73
2022-11-29T15:11:13.403Z,101469.54
2022-11-29T15:14:02.317Z,101475.41
2022-11-29T15:17:08.964Z,101476.09
2022-11-29T15:20:15.164Z,101480.84
2022-11-29T15:22:58.182Z,101479.75
2022-11-29T15:25:31.076Z,101480.83
2022-11-29T15:28:03.937Z,101478.69
2022-11-29T15:30:36.432Z,101482.97
2022-11-29T15:33:21.322Z,101485.22
2022-11-29T15:35:55.739Z,101486.29
2022-11-29T15:38:24.537Z,101489.81
2022-11-29T15:40:54.559Z,101490.44
2022-11-29T15:43:51.509Z,101491.01
2022-11-29T15:46:23.560Z,101497.73
2022-11-29T15:48:51.345Z,101503.22
2022-11-29T15:51:21.958Z,101506.23
2022-11-29T15:54:00.425Z,101506.30
2022-11-29T15:56:39.274Z,101509.53
2022-11-29T15:59:21.037Z,101509.44
2022-11-29T16:01:51.236Z,101513.91
2022-11-29T16:04:21.520Z,101511.40
2022-11-29T16:06:50.099Z,101511.31
2022-11-29T16:09:31.562Z,101504.76
2022-11-29T16:12:01.608Z,101500.43
2022-11-29T16:14:29.404Z,101502.23
2022-11-29T16:17:00.736Z,101500.69
2022-11-29T16:19:28.421Z,101501.73
2022-11-29T16:22:23.489Z,101502.73
2022-11-29T16:25:07.815Z,101504.44
2022-11-29T16:27:36.474Z,101501.55
2022-11-29T16:30:04.867Z,101503.25
2022-11-29T16:32:36.954Z,101507.62
2022-11-29T16:35:22.347Z,101505.74
2022-11-29T16:37:50.756Z,101505.32
2022-11-29T16:40:28.354Z,101504.91
2022-11-29T16:43:41.622Z,101508.27
2022-11-29T16:46:21.640Z,101510.52
2022-11-29T16:48:51.041Z,101511.45
2022-11-29T16:51:23.614Z,101517.49
2022-11-29T16:53:53.349Z,101517.31
2022-11-29T16:56:22.918Z,101521.88
2022-11-29T16:59:24.754Z,101524.73
2022-11-29T17:01:56.837Z,101525.22
2022-11-29T17:04:25.732Z,101522.18
2022-11-29T17:06:55.278Z,101526.61
2022-11-29T17:09:26.286Z,101526.81
2022-11-29T17:11:55.565Z,101527.46
2022-11-29T17:14:23.451Z,101530.05
2022-11-29T17:16:52.279Z,101531.57
2022-11-29T17:19:25.430Z,101529.58
2022-11-29T17:21:53.506Z,101536.59
2022-11-29T17:24:23.059Z,101532.87
2022-11-29T17:26:51.463Z,101535.39
2022-11-29T17:29:19.353Z,101532.52
2022-11-29T17:31:47.577Z,101531.64
2022-11-29T17:34:15.343Z,101537.27
2022-11-29T17:36:44.750Z,101539.48
2022-11-29T17:39:12.707Z,101541.48
2022-11-29T17:41:40.422Z,101539.40
2022-11-29T17:44:08.158Z,101539.32
2022-11-29T17:46:36.961Z,101537.90
2022-11-29T17:49:07.635Z,101547.09
2022-11-29T17:51:57.015Z,101542.30
2022-11-29T17:54:24.866Z,101542.56
2022-11-29T17:56:52.791Z,101546.48
2022-11-29T17:59:20.613Z,101552.13
2022-11-29T18:01:48.591Z,101549.59
2022-11-29T18:04:16.956Z,101550.29
2022-11-29T18:06:49.873Z,101545.92
2022-11-29T18:09:19.629Z,101549.04
2022-11-29T18:11:49.963Z,101555.02
2022-11-29T18:14:21.323Z,101553.24
2022-11-29T18:16:50.819Z,101550.52
2022-11-29T18:19:22.385Z,101555.16
2022-11-29T18:21:50.657Z,101553.85
2022-11-29T18:27:46.855Z,101549.77
2022-11-29T18:30:15.951Z,101548.83
2022-11-29T18:32:43.762Z,101553.92
2022-11-29T18:35:12.037Z,101551.50
2022-11-29T18:38:13.447Z,101552.16
2022-11-29T18:40:27.455Z,101552.95
2022-11-29T18:42:55.333Z,101554.38
2022-11-29T18:45:23.034Z,101551.73
2022-11-29T18:47:50.805Z,101554.63
2022-11-29T18:50:18.556Z,101553.54
2022-11-29T18:52:46.258Z,101557.34
2022-11-29T18:55:14.024Z,101556.92
2022-11-29T18:57:41.765Z,101552.46
2022-11-29T19:00:10.090Z,101554.95
2022-11-29T19:02:37.858Z,101555.48
2022-11-29T19:05:06.341Z,101559.79
2022-11-29T19:07:34.273Z,101563.07
2022-11-29T19:10:02.159Z,101565.39
2022-11-29T19:12:29.983Z,101562.83
2022-11-29T19:14:57.951Z,101566.91
2022-11-29T19:17:25.622Z,101573.08
2022-11-29T19:19:53.321Z,101572.73
2022-11-29T19:22:21.111Z,101570.57
2022-11-29T19:24:49.135Z,101571.89
2022-11-29T19:27:16.969Z,101566.05
2022-11-29T19:29:45.846Z,101566.47
2022-11-29T19:32:13.728Z,101569.00
2022-11-29T19:34:44.650Z,101568.61
2022-11-29T19:37:12.398Z,101570.80
2022-11-29T19:39:40.218Z,101575.86
2022-11-29T19:42:08.358Z,101579.86
2022-11-29T19:45:08.558Z,101586.55
2022-11-29T19:47:34.206Z,101585.50
2022-11-29T19:50:02.931Z,101588.00
2022-11-29T19:52:30.975Z,101589.67
2022-11-29T19:54:59.845Z,101592.36
2022-11-29T19:57:28.776Z,101590.64
2022-11-29T19:59:56.469Z,101593.47
2022-11-29T20:02:24.356Z,101594.92
2022-11-29T20:04:52.300Z,101594.16
2022-11-29T20:07:20.154Z,101596.05
2022-11-29T20:09:48.142Z,101598.93
2022-11-29T20:26:55.385Z,101609.52
2022-11-29T20:29:27.106Z,101614.33
2022-11-29T20:31:54.802Z,101614.10
2022-11-29T20:34:22.806Z,101610.42
2022-11-29T20:37:01.528Z,101609.32
2022-11-29T20:39:51.335Z,101612.14
2022-11-29T20:42:19.041Z,101616.88
2022-11-29T20:44:58.606Z,101615.41
2022-11-29T20:47:32.994Z,101619.62
2022-11-29T20:50:01.049Z,101618.45
2022-11-29T20:53:10.359Z,101611.06
2022-11-29T20:55:42.499Z,101610.63
2022-11-29T20:58:14.594Z,101611.17
2022-11-29T21:00:42.386Z,101607.67
2022-11-29T21:03:14.705Z,101611.83
2022-11-29T21:05:42.710Z,101614.15
2022-11-29T21:08:10.527Z,101618.48
2022-11-29T21:10:38.253Z,101621.98
2022-11-29T21:13:06.713Z,101621.95
2022-11-29T21:15:34.882Z,101618.07
2022-11-29T21:18:02.926Z,101617.51
2022-11-29T21:20:31.029Z,101620.27
2022-11-29T21:23:03.137Z,101625.07
2022-11-29T21:25:44.830Z,101628.64
2022-11-29T21:28:16.028Z,101626.55
2022-11-29T21:30:44.488Z,101628.45
2022-11-29T21:33:12.510Z,101628.80
2022-11-29T21:35:40.630Z,101625.65
2022-11-29T21:38:14.056Z,101630.59
2022-11-29T21:40:42.463Z,101630.27
2022-11-29T21:43:10.183Z,101630.30
2022-11-29T21:45:38.116Z,101635.98
2022-11-29T21:48:25.918Z,101638.90
2022-11-29T21:50:53.771Z,101640.84
2022-11-29T21:53:21.661Z,101644.83
2022-11-29T21:55:55.503Z,101643.17
2022-11-29T21:58:23.342Z,101643.61
2022-11-29T22:00:51.434Z,101647.83
2022-11-29T22:03:19.304Z,101647.80
2022-11-29T22:05:46.969Z,101646.91
2022-11-29T22:08:14.679Z,101651.37
2022-11-29T22:10:42.448Z,101651.04
2022-11-29T22:13:10.190Z,101652.66
2022-11-29T22:15:37.848Z,101652.94
2022-11-29T22:18:05.818Z,101654.33
2022-11-29T22:20:33.483Z,101653.02
2022-11-29T22:23:01.136Z,101651.33
2022-11-29T22:28:57.974Z,101651.19
2022-11-29T22:31:25.731Z,101649.22
2022-11-29T22:33:54.401Z,101649.98
2022-11-29T22:36:24.412Z,101650.89
2022-11-29T22:38:52.577Z,101653.55
2022-11-29T22:41:20.459Z,101652.77
2022-11-29T22:43:48.300Z,101650.23
2022-11-29T22:46:19.201Z,101649.60
2022-11-29T22:48:49.060Z,101646.39
2022-11-29T22:51:18.098Z,101641.86
2022-11-29T22:53:51.220Z,101642.00
2022-11-29T22:56:19.447Z,101637.02
2022-11-29T22:58:47.495Z,101639.16
2022-11-29T23:01:16.214Z,101636.30
2022-11-29T23:03:48.167Z,101632.10
2022-11-29T23:06:18.543Z,101632.03
2022-11-29T23:15:20.213Z,101630.08
2022-11-29T23:17:47.896Z,101627.62
2022-11-29T23:20:15.784Z,101623.93
2022-11-29T23:22:43.586Z,101621.11
2022-11-29T23:25:11.332Z,101620.79
2022-11-29T23:27:39.123Z,101618.79
2022-11-29T23:30:07.432Z,101620.09
2022-11-29T23:32:35.100Z,101618.83
2022-11-29T23:35:02.818Z,101615.00
2022-11-29T23:37:30.559Z,101614.88
2022-11-29T23:39:58.288Z,101614.79
2022-11-29T23:42:26.020Z,101616.12
2022-11-29T23:44:53.765Z,101608.90
2022-11-29T23:47:21.450Z,101611.31
2022-11-29T23:49:49.363Z,101608.88
2022-11-29T23:52:17.042Z,101611.12
2022-11-29T23:54:45.063Z,101607.15
2022-11-29T23:57:13.084Z,101612.38
2022-11-29T23:59:40.732Z,101609.30
